Pagrindinis puslapis
METAR-TAF:

METAR-TAF

Oro uostai :

Komatsujima, Japonija

platuma: 34-00N, ilguma: 134-38E, Aukštis: 3 m

Dabartinis oras

Ataskaita buvo paskelbta 12 valandos ir 14 minutes, ne 11:36 UTC
Vėjas 13 kt iš Šiaurės su gūsio iki 23 kt, svyruoja nuo Šiaurės/Šiaurės Vakarų ir Šiaurės Rytų
Temperatūra 14°C
Drėgmė 67%
Slėgis 1019 hPa
Matomumas 10 km arba daugiau
Mažai debesys ne aukštis 3000 ft

METAR: RJOP 091136Z 36013G23KT 330V040 9999 FEW030 14/08 Q1019 RMK 1CU030 A3010

Laikas: 08:50 (23:50 UTC)


TAF: trūkstamas

Orai ataskaitas ir orų prognozės (METAR, TAF).

turimą stotys yra geltonos ir raudonos taškus žemėlapyje.

Perkelti pele per norėdami pamatyti stoties vardą.

Tada spustelėkite, norėdami matyti oro stebėjimo ir prognozės.

Norėdami pakeisti žemėlapį: spustelėkite ant žalios mygtukų su juodo kryžiaus žemyn,; žalią mygtuką su brūkšneliu, jei norite nutolinti; arba žalių rodyklių gretimoms žemėlapius.


METAR-TAF: